Time;durP1;ratioP1;P1;durP2;ratioP2;P2;SDS_P1;SDS_P2;PMS_P1;PMS_P2;Temp;Humidity;BMP_temperature;BMP_pressure;BME280_temperature;BME280_humidity;BME280_pressure;Samples;Min_cycle;Max_cycle;Signal;HPM_P1;HPM_P2
2021/08/18 00:00:11;;;;;;;2.40;2.20;;;24.20;40.90;;;;;;5031447;28;20234;-49
2021/08/18 00:02:37;;;;;;;2.45;2.05;;;24.10;40.80;;;;;;5031800;28;20220;-52
2021/08/18 00:05:04;;;;;;;2.58;2.20;;;24.10;40.90;;;;;;5032160;28;20289;-48
2021/08/18 00:07:30;;;;;;;2.38;2.10;;;24.20;40.90;;;;;;5030175;28;20202;-46
2021/08/18 00:09:57;;;;;;;2.35;2.03;;;24.10;40.90;;;;;;5031951;28;20305;-50
2021/08/18 00:12:23;;;;;;;3.58;2.28;;;24.20;41.00;;;;;;5032809;28;20199;-48
2021/08/18 00:14:51;;;;;;;2.72;2.40;;;24.20;41.00;;;;;;5032722;28;20195;-50
2021/08/18 00:17:17;;;;;;;3.10;2.08;;;24.20;41.00;;;;;;5021728;28;20570;-46
2021/08/18 00:19:44;;;;;;;4.13;2.08;;;24.20;41.00;;;;;;5032395;28;20605;-50
2021/08/18 00:22:10;;;;;;;2.40;2.20;;;24.20;41.00;;;;;;5032011;28;20551;-51
2021/08/18 00:24:36;;;;;;;2.47;2.10;;;24.10;41.00;;;;;;5032799;28;20202;-52
2021/08/18 00:27:03;;;;;;;2.92;2.10;;;24.20;41.00;;;;;;5031564;28;20639;-45
2021/08/18 00:29:29;;;;;;;2.75;2.17;;;24.10;41.00;;;;;;5027863;28;20219;-50
2021/08/18 00:31:56;;;;;;;2.78;2.53;;;24.10;41.10;;;;;;5031917;28;20229;-50
2021/08/18 00:34:22;;;;;;;2.40;2.20;;;24.20;41.10;;;;;;5031297;28;20294;-47
2021/08/18 00:36:49;;;;;;;3.83;2.25;;;24.10;41.10;;;;;;5032882;28;20210;-48
2021/08/18 00:39:15;;;;;;;2.33;2.10;;;24.10;41.10;;;;;;5030814;28;20241;-51
2021/08/18 00:41:42;;;;;;;2.75;2.13;;;24.20;41.20;;;;;;5032467;28;20204;-53
2021/08/18 00:44:08;;;;;;;2.55;2.30;;;24.20;41.20;;;;;;5030952;28;20194;-52
2021/08/18 00:46:34;;;;;;;2.53;2.33;;;24.20;41.20;;;;;;5031513;28;20300;-53
2021/08/18 00:49:01;;;;;;;3.88;2.28;;;24.20;41.20;;;;;;5028385;28;20232;-48
2021/08/18 00:51:27;;;;;;;2.88;2.58;;;24.20;41.30;;;;;;5030831;28;20210;-45
2021/08/18 00:53:54;;;;;;;2.35;2.15;;;24.20;41.30;;;;;;5032116;28;20634;-48
2021/08/18 00:56:21;;;;;;;2.92;2.30;;;24.20;41.30;;;;;;5031491;28;20614;-49
2021/08/18 00:58:47;;;;;;;2.47;2.28;;;24.10;41.20;;;;;;5030236;28;20659;-45
2021/08/18 01:01:14;;;;;;;2.20;2.00;;;24.20;41.30;;;;;;5031681;28;20251;-44
2021/08/18 01:03:40;;;;;;;2.30;2.10;;;24.20;41.30;;;;;;5030730;28;20295;-47
2021/08/18 01:06:07;;;;;;;2.30;2.10;;;24.20;41.30;;;;;;5032219;28;20306;-48
2021/08/18 01:08:34;;;;;;;2.33;2.10;;;24.20;41.40;;;;;;5031176;28;20236;-50
2021/08/18 01:11:01;;;;;;;2.90;2.40;;;24.20;42.10;;;;;;5031308;28;20234;-51
2021/08/18 01:13:28;;;;;;;2.47;2.05;;;24.20;41.40;;;;;;5032326;28;20301;-48
2021/08/18 01:15:54;;;;;;;2.45;2.25;;;24.20;41.40;;;;;;5030553;28;20608;-46
2021/08/18 01:18:21;;;;;;;2.13;1.92;;;24.20;41.40;;;;;;5031615;28;20678;-50
2021/08/18 01:20:47;;;;;;;2.58;2.25;;;24.20;41.60;;;;;;5030178;28;20688;-48
2021/08/18 01:23:13;;;;;;;2.55;2.20;;;24.20;41.60;;;;;;5030707;28;20685;-46
2021/08/18 01:25:40;;;;;;;4.22;2.38;;;24.20;41.70;;;;;;5031939;28;20211;-46
2021/08/18 01:28:06;;;;;;;2.20;2.00;;;24.20;41.70;;;;;;5029679;28;20296;-50
2021/08/18 01:30:33;;;;;;;2.72;1.90;;;24.20;41.80;;;;;;5029806;28;20203;-50
2021/08/18 01:32:59;;;;;;;3.13;2.20;;;24.20;41.80;;;;;;5028901;28;20203;-50
2021/08/18 01:35:26;;;;;;;2.20;2.00;;;24.20;41.80;;;;;;5030635;28;20206;-50
2021/08/18 01:37:52;;;;;;;3.55;2.15;;;24.20;41.80;;;;;;5029341;28;20317;-46
2021/08/18 01:40:19;;;;;;;2.15;1.90;;;24.20;41.80;;;;;;5028471;28;20198;-49
2021/08/18 01:42:45;;;;;;;2.13;1.92;;;24.20;41.80;;;;;;5029957;28;20199;-50
2021/08/18 01:45:11;;;;;;;2.45;2.10;;;24.20;41.80;;;;;;5030300;28;20218;-50
2021/08/18 01:47:38;;;;;;;2.38;2.13;;;24.20;41.80;;;;;;5030082;28;20233;-51
2021/08/18 01:50:04;;;;;;;2.22;2.03;;;24.20;41.80;;;;;;5028443;28;20297;-47
2021/08/18 01:52:31;;;;;;;2.35;2.15;;;24.20;41.80;;;;;;5031222;28;20198;-50
2021/08/18 01:54:59;;;;;;;3.78;1.98;;;24.20;41.80;;;;;;5029927;28;20216;-48
2021/08/18 01:57:25;;;;;;;2.28;2.03;;;24.20;41.80;;;;;;5030434;28;20402;-44
2021/08/18 01:59:52;;;;;;;2.03;1.83;;;24.20;41.80;;;;;;5029028;28;20217;-46
2021/08/18 02:02:18;;;;;;;2.50;2.00;;;24.20;41.90;;;;;;5029765;28;20300;-49
2021/08/18 02:04:45;;;;;;;2.55;2.05;;;24.20;41.90;;;;;;5029693;28;20202;-46
2021/08/18 02:07:11;;;;;;;3.05;2.20;;;24.20;41.90;;;;;;5030398;28;20216;-50
2021/08/18 02:09:37;;;;;;;3.22;2.03;;;24.20;42.60;;;;;;5029053;28;20229;-49
2021/08/18 02:12:04;;;;;;;2.20;1.90;;;24.20;41.90;;;;;;5028897;28;20275;-48
2021/08/18 02:14:31;;;;;;;3.65;2.50;;;24.20;41.90;;;;;;5030847;28;20528;-46
2021/08/18 02:16:57;;;;;;;4.38;2.40;;;24.20;41.90;;;;;;5029550;28;20297;-46
2021/08/18 02:19:23;;;;;;;2.85;2.30;;;24.20;41.90;;;;;;5023718;28;20230;-50
2021/08/18 02:21:50;;;;;;;2.50;2.20;;;24.20;42.00;;;;;;5028992;28;20209;-45
2021/08/18 02:24:16;;;;;;;2.38;2.17;;;24.20;42.00;;;;;;5030698;28;20202;-47
2021/08/18 02:26:43;;;;;;;2.22;2.00;;;24.20;42.00;;;;;;5029030;28;20203;-49
2021/08/18 02:29:09;;;;;;;2.40;2.10;;;24.20;42.00;;;;;;5030863;28;20218;-45
2021/08/18 02:31:36;;;;;;;2.30;2.10;;;24.20;42.00;;;;;;5027851;28;20214;-47
2021/08/18 02:34:02;;;;;;;3.67;2.25;;;24.20;42.00;;;;;;5030732;28;20210;-46
2021/08/18 02:36:29;;;;;;;2.15;1.92;;;24.20;42.00;;;;;;5028956;28;20206;-48
2021/08/18 02:38:55;;;;;;;2.35;1.95;;;24.20;42.00;;;;;;5028889;28;20222;-47
2021/08/18 02:41:22;;;;;;;2.10;1.90;;;24.20;42.10;;;;;;5027230;28;20209;-48
2021/08/18 02:43:48;;;;;;;2.25;1.92;;;24.20;42.10;;;;;;5030172;28;20202;-45
2021/08/18 02:46:14;;;;;;;2.88;1.88;;;24.20;42.10;;;;;;5027602;28;20220;-48
2021/08/18 02:48:41;;;;;;;2.30;2.10;;;24.20;42.10;;;;;;5030067;28;20214;-51
2021/08/18 02:51:07;;;;;;;2.78;1.92;;;24.20;42.10;;;;;;5027463;28;20199;-48
2021/08/18 02:53:34;;;;;;;2.30;1.98;;;24.20;42.10;;;;;;5028953;28;20288;-49
2021/08/18 02:56:00;;;;;;;2.60;2.40;;;24.20;42.10;;;;;;5029575;28;20209;-51
2021/08/18 02:58:27;;;;;;;2.33;2.13;;;24.20;42.20;;;;;;5029872;28;20321;-49
2021/08/18 03:00:53;;;;;;;2.20;2.00;;;24.20;42.20;;;;;;5028537;28;20289;-51
2021/08/18 03:03:19;;;;;;;2.80;2.10;;;24.20;42.20;;;;;;5028893;28;20224;-48
2021/08/18 03:05:46;;;;;;;2.40;2.10;;;24.20;42.20;;;;;;5028851;28;20198;-46
2021/08/18 03:08:13;;;;;;;2.55;2.20;;;24.20;42.20;;;;;;5029402;28;20226;-50
2021/08/18 03:10:39;;;;;;;2.33;2.10;;;24.20;42.20;;;;;;5028877;28;20297;-48
2021/08/18 03:13:06;;;;;;;2.20;2.00;;;24.20;42.20;;;;;;5029181;28;20285;-45
2021/08/18 03:15:32;;;;;;;2.70;1.98;;;24.20;42.20;;;;;;5028953;28;20199;-47
2021/08/18 03:17:59;;;;;;;2.05;1.85;;;24.20;42.30;;;;;;5030010;28;20317;-47
2021/08/18 03:20:25;;;;;;;2.45;2.00;;;24.20;42.20;;;;;;5027921;28;20198;-51
2021/08/18 03:22:51;;;;;;;2.05;1.85;;;24.20;42.30;;;;;;5025512;28;20205;-50
2021/08/18 03:25:18;;;;;;;2.30;2.00;;;24.20;42.30;;;;;;5029457;28;20228;-49
2021/08/18 03:27:44;;;;;;;2.30;2.10;;;24.20;42.30;;;;;;5029153;28;20230;-51
2021/08/18 03:30:11;;;;;;;2.25;2.05;;;24.20;42.30;;;;;;5029062;28;20198;-52
2021/08/18 03:32:37;;;;;;;3.67;2.45;;;24.20;42.30;;;;;;5028949;28;20286;-45
2021/08/18 03:35:04;;;;;;;2.75;2.00;;;24.20;42.30;;;;;;5025834;28;20285;-46
2021/08/18 03:37:30;;;;;;;2.72;2.30;;;24.20;42.30;;;;;;5028044;28;20301;-47
2021/08/18 03:39:57;;;;;;;2.38;2.15;;;24.20;42.30;;;;;;5028314;28;20234;-46
2021/08/18 03:42:23;;;;;;;2.28;2.08;;;24.20;42.30;;;;;;5028696;28;20293;-48
2021/08/18 03:44:49;;;;;;;2.25;1.90;;;24.20;42.30;;;;;;5026856;28;20229;-47
2021/08/18 03:47:16;;;;;;;2.80;1.88;;;24.20;42.40;;;;;;5029557;28;20288;-46
2021/08/18 03:49:42;;;;;;;2.45;2.03;;;24.30;42.40;;;;;;5027900;28;20211;-49
2021/08/18 03:52:09;;;;;;;2.47;2.10;;;24.30;42.40;;;;;;5029729;28;20302;-47
2021/08/18 03:54:35;;;;;;;2.30;1.98;;;24.30;42.40;;;;;;5028309;28;20278;-48
2021/08/18 03:57:02;;;;;;;2.15;1.95;;;24.20;42.30;;;;;;5028784;28;20218;-51
2021/08/18 03:59:28;;;;;;;2.38;2.00;;;24.20;42.40;;;;;;5029001;28;20232;-53
2021/08/18 04:01:55;;;;;;;2.58;2.38;;;24.20;42.40;;;;;;5029054;28;20198;-50
2021/08/18 04:04:21;;;;;;;2.75;2.15;;;24.20;42.40;;;;;;5031398;28;20230;-50
2021/08/18 04:06:48;;;;;;;2.92;2.00;;;24.20;42.50;;;;;;5032265;28;20220;-46
2021/08/18 04:09:14;;;;;;;3.22;2.17;;;24.30;42.70;;;;;;5032228;28;20198;-51
2021/08/18 04:11:41;;;;;;;3.10;2.17;;;24.30;42.90;;;;;;5032093;28;20203;-47
2021/08/18 04:14:10;;;;;;;3.88;2.20;;;24.20;42.90;;;;;;5030984;28;20202;-50
2021/08/18 04:16:36;;;;;;;2.35;2.15;;;24.20;43.10;;;;;;5031888;28;20658;-52
2021/08/18 04:19:03;;;;;;;2.00;1.90;;;24.30;43.20;;;;;;5030366;28;20712;-49
2021/08/18 04:21:29;;;;;;;2.17;1.98;;;24.30;43.20;;;;;;5022351;28;20624;-48
2021/08/18 04:23:55;;;;;;;2.20;2.00;;;24.30;43.20;;;;;;5031569;28;20627;-52
2021/08/18 04:26:22;;;;;;;2.35;2.00;;;24.30;43.20;;;;;;5012785;28;20306;-47
2021/08/18 04:28:48;;;;;;;2.90;2.33;;;24.30;43.30;;;;;;5018236;28;20206;-46
2021/08/18 04:31:15;;;;;;;2.50;2.30;;;24.20;43.10;;;;;;5030519;28;20203;-49
2021/08/18 04:33:42;;;;;;;2.22;2.03;;;24.20;43.10;;;;;;5030997;28;20203;-46
2021/08/18 04:36:08;;;;;;;2.30;2.03;;;24.30;43.20;;;;;;5029701;28;20896;-46
2021/08/18 04:38:34;;;;;;;3.28;2.33;;;24.30;43.20;;;;;;5031716;28;20571;-46
2021/08/18 04:41:01;;;;;;;2.38;2.17;;;24.30;43.20;;;;;;5031324;28;20668;-47
2021/08/18 04:43:27;;;;;;;3.10;1.90;;;24.20;43.10;;;;;;5030437;28;20650;-50
2021/08/18 04:45:54;;;;;;;2.63;2.00;;;24.30;43.20;;;;;;5031144;28;20643;-54
2021/08/18 04:48:20;;;;;;;2.10;1.90;;;24.30;43.20;;;;;;5031935;28;20565;-48
2021/08/18 04:50:47;;;;;;;3.55;2.30;;;24.30;43.20;;;;;;5031962;28;20568;-50
2021/08/18 04:53:13;;;;;;;2.60;2.00;;;24.30;43.20;;;;;;5030997;28;20661;-47
2021/08/18 04:55:40;;;;;;;3.13;2.05;;;24.30;43.20;;;;;;5031043;28;20307;-52
2021/08/18 04:58:06;;;;;;;2.88;2.20;;;24.30;43.10;;;;;;5030310;28;20209;-48
2021/08/18 05:00:33;;;;;;;2.10;1.85;;;24.30;43.20;;;;;;5031514;28;20209;-49
2021/08/18 05:02:59;;;;;;;3.20;2.10;;;24.30;43.20;;;;;;5030550;28;20663;-47
2021/08/18 05:05:26;;;;;;;2.42;2.20;;;24.30;43.20;;;;;;5031707;28;20218;-48
2021/08/18 05:07:52;;;;;;;2.17;1.98;;;24.30;43.10;;;;;;5031287;28;20879;-47
2021/08/18 05:10:19;;;;;;;2.35;2.15;;;24.30;43.10;;;;;;5031321;28;20297;-48
2021/08/18 05:12:45;;;;;;;2.45;2.25;;;24.30;43.10;;;;;;5030391;28;20199;-47
2021/08/18 05:15:11;;;;;;;2.40;2.20;;;24.30;43.10;;;;;;5031067;28;20240;-51
2021/08/18 05:17:38;;;;;;;2.22;1.92;;;24.30;43.20;;;;;;5031557;28;20225;-46
2021/08/18 05:20:05;;;;;;;2.45;1.92;;;24.30;43.10;;;;;;5030249;28;20234;-50
2021/08/18 05:22:31;;;;;;;2.35;2.15;;;24.30;43.10;;;;;;5031857;28;20243;-50
2021/08/18 05:24:57;;;;;;;2.60;2.28;;;24.30;43.00;;;;;;5029992;28;20213;-49
2021/08/18 05:27:24;;;;;;;3.15;2.00;;;24.30;43.10;;;;;;5031226;28;20191;-49
2021/08/18 05:29:50;;;;;;;2.47;2.08;;;24.30;43.00;;;;;;5030061;28;20209;-49
2021/08/18 05:32:17;;;;;;;2.45;2.25;;;24.30;43.00;;;;;;5030314;28;20285;-50
2021/08/18 05:34:43;;;;;;;1.95;1.80;;;24.30;43.00;;;;;;5029809;28;20217;-49
2021/08/18 05:37:10;;;;;;;2.63;2.20;;;24.30;43.00;;;;;;5028904;28;20199;-47
2021/08/18 05:39:36;;;;;;;3.20;2.60;;;24.30;42.90;;;;;;5030827;28;20230;-51
2021/08/18 05:42:03;;;;;;;3.35;2.60;;;24.30;43.00;;;;;;5028968;28;20212;-53
2021/08/18 05:44:29;;;;;;;2.40;2.20;;;24.30;43.00;;;;;;5030466;28;20277;-46
2021/08/18 05:46:56;;;;;;;2.72;2.45;;;24.30;43.00;;;;;;5028754;28;20275;-51
2021/08/18 05:49:22;;;;;;;4.28;2.33;;;24.30;42.90;;;;;;5030219;28;20280;-52
2021/08/18 05:51:48;;;;;;;2.35;2.15;;;24.30;43.00;;;;;;5031128;28;20232;-51
2021/08/18 05:54:15;;;;;;;2.58;2.38;;;24.30;43.00;;;;;;5030210;28;20226;-53
2021/08/18 05:56:41;;;;;;;2.83;2.47;;;24.30;43.00;;;;;;5030600;28;20223;-51
2021/08/18 05:59:08;;;;;;;2.33;2.13;;;24.30;43.10;;;;;;5029509;28;20249;-52
2021/08/18 06:01:34;;;;;;;2.20;2.00;;;24.30;43.00;;;;;;5030339;28;20195;-46
2021/08/18 06:04:01;;;;;;;2.40;2.20;;;24.30;43.00;;;;;;5028770;28;20210;-47
2021/08/18 06:06:28;;;;;;;2.47;2.15;;;24.30;43.00;;;;;;5030582;28;20310;-51
2021/08/18 06:08:54;;;;;;;2.45;2.25;;;24.30;43.00;;;;;;5029410;28;20256;-50
2021/08/18 06:11:21;;;;;;;2.40;2.20;;;24.30;43.00;;;;;;5030026;28;20203;-49
2021/08/18 06:13:47;;;;;;;3.28;2.60;;;24.30;43.00;;;;;;5030336;28;20666;-51
2021/08/18 06:16:14;;;;;;;2.40;2.20;;;24.30;43.00;;;;;;5028979;28;20225;-48
2021/08/18 06:18:40;;;;;;;2.80;2.42;;;24.30;42.90;;;;;;5030689;28;20206;-52
2021/08/18 06:21:06;;;;;;;3.20;2.40;;;24.30;43.00;;;;;;5024758;28;20228;-48
2021/08/18 06:23:34;;;;;;;2.72;2.20;;;24.30;43.00;;;;;;5030899;28;20202;-50
2021/08/18 06:26:00;;;;;;;2.22;2.00;;;24.30;43.00;;;;;;5028666;28;20258;-51
2021/08/18 06:28:27;;;;;;;2.55;2.00;;;24.30;43.00;;;;;;5026162;28;20237;-51
2021/08/18 06:30:53;;;;;;;2.60;2.40;;;24.30;42.90;;;;;;5028686;28;20209;-52
2021/08/18 06:33:20;;;;;;;2.90;2.60;;;24.30;43.00;;;;;;5029768;28;20222;-48
2021/08/18 06:35:46;;;;;;;2.80;2.40;;;24.30;43.00;;;;;;5028801;28;20308;-49
2021/08/18 06:38:13;;;;;;;2.63;2.22;;;24.30;43.00;;;;;;5028337;28;20275;-52
2021/08/18 06:40:39;;;;;;;2.90;2.40;;;24.30;43.00;;;;;;5029166;28;20226;-53
2021/08/18 06:43:06;;;;;;;2.38;2.10;;;24.30;43.00;;;;;;5028830;28;20199;-50
2021/08/18 06:45:32;;;;;;;2.65;2.40;;;24.30;43.00;;;;;;5029727;28;20222;-49
2021/08/18 06:47:58;;;;;;;2.90;2.70;;;24.30;43.00;;;;;;5028342;28;20210;-52
2021/08/18 06:50:25;;;;;;;2.50;2.25;;;24.30;43.00;;;;;;5029014;28;20195;-52
2021/08/18 06:52:51;;;;;;;2.88;2.47;;;24.30;43.00;;;;;;5029326;28;20286;-50
2021/08/18 06:55:18;;;;;;;2.72;2.53;;;24.30;43.00;;;;;;5029191;28;20704;-51
2021/08/18 06:57:45;;;;;;;2.80;2.60;;;24.40;43.80;;;;;;5029140;28;20210;-51
2021/08/18 07:00:11;;;;;;;2.95;2.50;;;24.30;43.00;;;;;;5029409;28;20234;-48
2021/08/18 07:02:38;;;;;;;3.05;2.53;;;24.30;42.90;;;;;;5028389;28;20694;-46
2021/08/18 07:05:04;;;;;;;2.47;2.10;;;24.30;43.70;;;;;;5030197;28;20585;-46
2021/08/18 07:07:31;;;;;;;2.63;2.20;;;24.30;43.00;;;;;;5027785;28;20202;-46
2021/08/18 07:09:57;;;;;;;2.78;2.50;;;24.30;43.00;;;;;;5029173;28;20206;-46
2021/08/18 07:12:24;;;;;;;2.63;2.20;;;24.40;43.20;;;;;;5025048;28;20194;-48
2021/08/18 07:14:50;;;;;;;3.13;2.40;;;24.30;43.20;;;;;;5029695;28;20225;-52
2021/08/18 07:17:16;;;;;;;2.75;2.35;;;24.40;43.30;;;;;;5026439;28;20202;-47
2021/08/18 07:19:43;;;;;;;6.00;2.35;;;24.40;43.30;;;;;;5026949;28;20298;-47
2021/08/18 07:22:09;;;;;;;3.70;2.72;;;24.40;43.30;;;;;;5027483;28;20608;-49
2021/08/18 07:24:36;;;;;;;2.83;2.22;;;24.40;43.50;;;;;;5029207;28;20583;-50
2021/08/18 07:27:03;;;;;;;3.13;2.70;;;24.40;43.50;;;;;;5026474;28;20329;-47
2021/08/18 07:29:30;;;;;;;10.85;8.10;;;24.40;43.60;;;;;;5026374;28;20198;-50
2021/08/18 07:31:56;;;;;;;17.67;10.00;;;22.70;41.10;;;;;;5027193;28;20206;-50
2021/08/18 07:34:22;;;;;;;12.93;8.70;;;21.80;40.60;;;;;;5028471;28;20223;-51
2021/08/18 07:36:49;;;;;;;12.25;9.77;;;21.20;43.70;;;;;;5028550;28;20720;-46
2021/08/18 07:39:15;;;;;;;12.75;9.18;;;20.40;44.10;;;;;;5031943;28;20605;-46
2021/08/18 07:41:42;;;;;;;10.73;8.25;;;21.10;44.40;;;;;;5030210;28;20578;-48
2021/08/18 07:44:08;;;;;;;11.82;8.40;;;22.10;42.70;;;;;;5033296;28;20620;-48
2021/08/18 07:46:35;;;;;;;11.18;9.32;;;22.70;41.80;;;;;;5030673;28;20271;-48
2021/08/18 07:49:01;;;;;;;10.07;8.40;;;23.10;41.70;;;;;;5017050;28;20214;-47
2021/08/18 07:51:28;;;;;;;10.98;8.68;;;23.40;41.50;;;;;;5031328;28;20199;-51
2021/08/18 07:53:54;;;;;;;12.23;9.00;;;23.50;41.40;;;;;;5031493;28;20221;-45
2021/08/18 07:56:20;;;;;;;10.70;8.77;;;23.70;41.50;;;;;;5033085;28;20198;-49
2021/08/18 07:58:47;;;;;;;10.20;8.27;;;23.70;41.50;;;;;;5032024;28;20294;-48
2021/08/18 08:01:13;;;;;;;10.60;8.48;;;23.80;41.40;;;;;;5032054;28;20222;-50
2021/08/18 08:03:40;;;;;;;10.82;8.18;;;23.70;41.00;;;;;;5032176;28;20230;-47
2021/08/18 08:06:07;;;;;;;10.98;9.10;;;23.80;40.70;;;;;;5033232;28;20191;-47
2021/08/18 08:08:33;;;;;;;13.30;8.55;;;23.80;40.50;;;;;;5032414;28;20211;-48
2021/08/18 08:10:59;;;;;;;13.07;9.52;;;23.80;40.20;;;;;;5031219;28;20232;-48
2021/08/18 08:13:26;;;;;;;10.82;8.80;;;23.80;40.40;;;;;;5029680;28;20251;-49
2021/08/18 08:15:52;;;;;;;13.25;9.15;;;23.80;40.10;;;;;;5030465;28;20199;-48
2021/08/18 08:18:19;;;;;;;13.18;8.77;;;23.80;40.00;;;;;;5028587;28;20305;-48
2021/08/18 08:20:45;;;;;;;12.32;8.68;;;23.90;39.90;;;;;;5021460;28;20223;-51
2021/08/18 08:23:12;;;;;;;11.05;8.50;;;23.90;39.30;;;;;;5026885;28;20222;-51
2021/08/18 08:25:38;;;;;;;11.75;9.00;;;23.90;39.40;;;;;;5028239;28;20210;-50
2021/08/18 08:28:05;;;;;;;10.90;8.75;;;23.90;39.90;;;;;;5026138;28;20209;-53
2021/08/18 08:30:31;;;;;;;10.52;8.00;;;23.90;39.10;;;;;;5029501;28;20289;-48
2021/08/18 08:32:57;;;;;;;11.40;8.88;;;24.00;39.30;;;;;;5032337;28;20228;-46
2021/08/18 08:35:24;;;;;;;9.90;8.90;;;24.00;38.80;;;;;;5030159;28;20205;-50
2021/08/18 08:37:50;;;;;;;14.10;8.75;;;24.10;39.10;;;;;;5028883;28;20202;-51
2021/08/18 08:40:17;;;;;;;11.25;8.90;;;24.00;38.90;;;;;;5027857;28;20234;-50
2021/08/18 08:42:43;;;;;;;9.82;8.25;;;24.00;38.90;;;;;;5031690;28;20198;-51
2021/08/18 08:45:10;;;;;;;11.43;8.38;;;24.00;38.30;;;;;;5030112;28;20213;-54
2021/08/18 08:47:36;;;;;;;9.38;8.02;;;24.10;39.10;;;;;;5029172;28;20377;-50
2021/08/18 08:50:03;;;;;;;11.52;8.13;;;24.00;38.90;;;;;;5027319;28;20202;-48
2021/08/18 08:52:30;;;;;;;10.45;7.47;;;24.00;38.70;;;;;;5028835;28;20636;-48
2021/08/18 08:54:56;;;;;;;10.05;7.60;;;24.00;38.10;;;;;;5029881;28;20788;-50
2021/08/18 08:57:23;;;;;;;9.32;7.88;;;24.10;38.50;;;;;;5030856;28;20285;-47
2021/08/18 08:59:49;;;;;;;10.40;7.68;;;24.10;38.20;;;;;;5031300;28;20229;-51
2021/08/18 09:02:16;;;;;;;8.75;7.47;;;24.00;38.10;;;;;;5029880;28;20710;-46
2021/08/18 09:04:43;;;;;;;11.98;8.50;;;24.00;38.10;;;;;;5029409;28;20222;-48
2021/08/18 09:07:10;;;;;;;10.20;7.65;;;24.00;38.10;;;;;;5030804;28;20625;-51
2021/08/18 09:09:36;;;;;;;9.93;7.75;;;24.00;38.10;;;;;;5031622;28;20583;-47
2021/08/18 09:12:03;;;;;;;9.50;7.70;;;24.00;38.10;;;;;;5038214;28;20543;-51
2021/08/18 09:14:30;;;;;;;11.05;7.50;;;24.00;38.10;;;;;;5030653;28;20267;-50
2021/08/18 09:16:56;;;;;;;10.73;7.78;;;24.00;38.10;;;;;;5029779;28;20260;-57
2021/08/18 09:19:23;;;;;;;11.25;7.65;;;24.00;38.10;;;;;;5028344;28;20205;-47
2021/08/18 09:21:49;;;;;;;9.43;7.72;;;24.10;38.20;;;;;;5029974;28;20309;-49
2021/08/18 09:24:16;;;;;;;10.70;7.65;;;24.00;38.20;;;;;;5031599;28;20226;-48
2021/08/18 09:26:42;;;;;;;9.65;8.13;;;24.00;38.10;;;;;;5028390;28;20207;-49
2021/08/18 09:29:08;;;;;;;11.32;8.10;;;24.00;38.20;;;;;;5030034;28;20198;-46
2021/08/18 09:31:35;;;;;;;10.82;8.55;;;24.00;38.40;;;;;;5029094;28;20212;-50
2021/08/18 09:34:01;;;;;;;9.98;7.32;;;24.00;38.10;;;;;;5027501;28;20215;-46
2021/08/18 09:36:29;;;;;;;9.18;7.53;;;24.00;38.10;;;;;;5025424;28;20202;-47
2021/08/18 09:38:56;;;;;;;8.38;6.97;;;23.90;38.00;;;;;;5029465;28;20206;-46
2021/08/18 09:41:24;;;;;;;8.15;7.20;;;24.00;38.10;;;;;;5028636;28;20304;-49
2021/08/18 09:43:50;;;;;;;9.02;7.32;;;24.00;38.10;;;;;;5026342;28;20229;-49
2021/08/18 09:46:17;;;;;;;9.98;7.43;;;24.00;38.10;;;;;;5028551;28;20206;-49
2021/08/18 09:48:44;;;;;;;10.73;7.25;;;24.10;38.10;;;;;;5029235;28;20282;-50
2021/08/18 09:51:11;;;;;;;8.32;6.60;;;24.00;38.10;;;;;;5030315;28;20293;-50
2021/08/18 09:53:39;;;;;;;7.95;6.80;;;24.10;38.10;;;;;;5027887;28;20219;-52
2021/08/18 09:56:05;;;;;;;9.57;7.43;;;24.00;38.10;;;;;;5027779;28;20593;-50
2021/08/18 09:58:32;;;;;;;8.52;6.95;;;24.00;38.10;;;;;;5026394;28;20203;-50
2021/08/18 10:00:58;;;;;;;9.57;7.18;;;24.00;38.10;;;;;;5027403;28;20234;-47
2021/08/18 10:03:25;;;;;;;8.35;7.03;;;24.00;38.10;;;;;;5028343;28;20233;-51
2021/08/18 10:05:53;;;;;;;8.52;7.05;;;24.10;38.20;;;;;;5030949;28;20555;-53
2021/08/18 10:08:20;;;;;;;10.38;7.55;;;24.10;38.80;;;;;;5030049;28;20409;-53
2021/08/18 10:10:46;;;;;;;8.70;6.82;;;24.20;38.90;;;;;;5025107;28;20203;-50
2021/08/18 10:13:13;;;;;;;9.43;7.10;;;24.10;38.90;;;;;;5017766;28;20311;-52
2021/08/18 10:15:39;;;;;;;8.90;7.45;;;24.10;38.20;;;;;;5028927;28;20199;-48
2021/08/18 10:18:05;;;;;;;10.40;6.90;;;24.10;38.20;;;;;;5029871;28;20195;-48
2021/08/18 10:20:32;;;;;;;8.98;6.75;;;24.00;38.40;;;;;;5025968;28;20226;-53
2021/08/18 10:22:58;;;;;;;10.20;7.13;;;24.10;38.40;;;;;;5029708;28;20218;-54
2021/08/18 10:25:25;;;;;;;9.50;7.28;;;24.00;38.60;;;;;;5025379;28;20213;-52
2021/08/18 10:27:51;;;;;;;9.35;6.82;;;24.00;38.70;;;;;;5025186;28;20286;-49
2021/08/18 10:30:18;;;;;;;9.68;6.63;;;24.00;38.70;;;;;;5028113;28;20218;-52
2021/08/18 10:32:44;;;;;;;8.48;6.93;;;24.00;39.20;;;;;;5027405;28;20229;-52
2021/08/18 10:35:10;;;;;;;9.88;6.97;;;24.00;38.70;;;;;;5028330;28;20252;-50
2021/08/18 10:37:37;;;;;;;9.55;7.13;;;23.90;38.40;;;;;;5029769;28;20207;-54
2021/08/18 10:40:03;;;;;;;8.82;6.80;;;23.90;38.50;;;;;;5027734;28;20223;-51
2021/08/18 10:42:30;;;;;;;11.27;6.65;;;23.90;38.60;;;;;;5024854;28;20241;-51
2021/08/18 10:44:56;;;;;;;8.20;7.10;;;23.90;38.90;;;;;;5029467;28;20281;-52
2021/08/18 10:47:23;;;;;;;8.30;6.68;;;23.90;38.50;;;;;;5027333;28;20209;-51
2021/08/18 10:49:49;;;;;;;8.48;6.97;;;23.90;39.00;;;;;;5018502;28;20209;-50
2021/08/18 10:52:16;;;;;;;6.93;5.97;;;24.00;39.50;;;;;;5027342;28;20701;-49
2021/08/18 10:54:42;;;;;;;7.32;6.25;;;24.00;38.90;;;;;;5022882;28;20253;-51
2021/08/18 10:57:08;;;;;;;9.45;6.60;;;24.00;38.90;;;;;;5029366;28;20206;-54
2021/08/18 10:59:35;;;;;;;6.57;5.72;;;24.00;38.60;;;;;;5024337;28;20206;-50
2021/08/18 11:02:01;;;;;;;7.80;6.15;;;24.00;38.70;;;;;;5029392;28;20228;-54
2021/08/18 11:04:28;;;;;;;8.10;6.30;;;24.00;38.40;;;;;;5028856;28;20203;-53
2021/08/18 11:06:54;;;;;;;9.38;6.10;;;24.00;38.50;;;;;;5028947;28;20293;-53
2021/08/18 11:09:21;;;;;;;8.20;6.32;;;24.00;38.60;;;;;;5020815;28;20214;-53
2021/08/18 11:11:47;;;;;;;7.45;6.40;;;24.00;38.90;;;;;;5029467;28;20221;-52
2021/08/18 11:14:14;;;;;;;6.57;5.90;;;24.00;38.60;;;;;;5033348;28;20231;-52
2021/08/18 11:16:40;;;;;;;7.20;6.03;;;24.00;38.60;;;;;;5033176;28;20216;-48
2021/08/18 11:19:06;;;;;;;9.98;5.95;;;24.00;39.10;;;;;;5032743;28;20197;-50
2021/08/18 11:21:33;;;;;;;7.00;6.15;;;24.00;39.40;;;;;;5028736;28;20240;-48
2021/08/18 11:23:59;;;;;;;7.95;6.18;;;24.00;39.00;;;;;;5028368;28;20627;-51
2021/08/18 11:26:26;;;;;;;9.10;5.75;;;24.10;39.50;;;;;;5039918;28;20220;-52
2021/08/18 11:28:52;;;;;;;9.50;5.55;;;24.20;38.30;;;;;;5032692;28;20198;-46
2021/08/18 11:31:19;;;;;;;7.15;5.68;;;24.10;38.60;;;;;;5031929;28;20202;-51
2021/08/18 11:33:45;;;;;;;8.98;5.85;;;24.00;38.20;;;;;;5031525;28;20228;-49
2021/08/18 11:36:12;;;;;;;8.50;5.47;;;24.10;38.20;;;;;;5031357;28;20209;-47
2021/08/18 11:38:38;;;;;;;8.40;5.90;;;24.00;38.40;;;;;;5030705;28;20202;-45
2021/08/18 11:41:04;;;;;;;8.35;6.38;;;24.10;39.00;;;;;;5030481;28;20230;-44
2021/08/18 11:43:31;;;;;;;8.85;6.18;;;24.10;38.80;;;;;;5033697;28;20232;-48
2021/08/18 11:45:57;;;;;;;7.47;5.88;;;24.10;38.70;;;;;;5032154;28;20203;-46
2021/08/18 11:48:24;;;;;;;7.15;5.03;;;24.00;38.70;;;;;;5031111;28;20206;-49
2021/08/18 11:50:50;;;;;;;6.45;5.50;;;24.00;38.90;;;;;;5023794;28;20217;-50
2021/08/18 11:53:17;;;;;;;7.20;5.88;;;24.00;38.90;;;;;;5032842;28;20252;-51
2021/08/18 11:55:44;;;;;;;6.30;5.55;;;24.00;39.20;;;;;;5031504;28;21070;-52
2021/08/18 11:58:10;;;;;;;10.68;5.50;;;24.10;39.50;;;;;;5031203;28;20198;-48
2021/08/18 12:00:36;;;;;;;6.80;5.45;;;24.00;39.20;;;;;;5032315;28;20596;-46
2021/08/18 12:03:03;;;;;;;6.30;5.28;;;24.00;39.10;;;;;;5031350;28;20537;-46
2021/08/18 12:05:29;;;;;;;6.70;5.60;;;24.00;39.10;;;;;;5032173;28;20285;-46
2021/08/18 12:07:56;;;;;;;7.35;5.82;;;24.00;39.00;;;;;;5030626;28;20198;-46
2021/08/18 12:10:23;;;;;;;6.93;5.75;;;24.00;39.10;;;;;;5042160;28;20200;-46
2021/08/18 12:12:50;;;;;;;8.43;5.40;;;24.00;39.10;;;;;;5032438;28;20335;-46
2021/08/18 12:15:16;;;;;;;6.20;5.05;;;24.00;39.00;;;;;;5049466;28;20223;-47
2021/08/18 12:17:43;;;;;;;7.22;5.78;;;24.00;39.00;;;;;;5032290;28;20282;-45
2021/08/18 12:20:09;;;;;;;7.63;5.25;;;24.10;39.10;;;;;;5025498;28;20213;-46
2021/08/18 12:22:36;;;;;;;6.47;5.15;;;24.10;39.00;;;;;;5032037;28;20310;-47
2021/08/18 12:25:02;;;;;;;5.80;4.55;;;24.10;39.20;;;;;;5032223;28;20198;-46
2021/08/18 12:27:29;;;;;;;5.55;4.45;;;24.10;39.40;;;;;;5032019;28;20207;-44
2021/08/18 12:29:55;;;;;;;6.68;4.70;;;24.10;39.40;;;;;;5029469;28;20281;-45
2021/08/18 12:32:21;;;;;;;6.60;4.95;;;24.10;39.30;;;;;;5026090;28;20230;-48
2021/08/18 12:34:48;;;;;;;5.20;4.60;;;24.10;39.50;;;;;;5016335;28;20199;-49
2021/08/18 12:37:14;;;;;;;6.07;4.85;;;24.10;39.40;;;;;;5032823;28;20202;-48
2021/08/18 12:39:41;;;;;;;6.05;4.53;;;24.10;39.50;;;;;;5029152;28;20195;-50